createdAt,value
2019-02-06T04:04:42.924Z,-0.40
2019-02-06T04:14:48.365Z,-0.40
2019-02-06T04:24:53.240Z,-0.30
2019-02-06T04:34:58.144Z,-0.20
2019-02-06T04:45:03.127Z,-0.30
2019-02-06T04:55:11.588Z,-0.20
2019-02-06T05:05:17.584Z,0.10
2019-02-06T05:15:23.054Z,0.20
2019-02-06T05:25:27.869Z,0.20
2019-02-06T05:35:33.964Z,0.30
2019-02-06T05:45:38.893Z,0.40
2019-02-06T05:55:43.804Z,0.70
2019-02-06T06:05:48.725Z,0.60
2019-02-06T06:15:53.677Z,0.30
2019-02-06T06:25:58.552Z,0.20
2019-02-06T06:36:04.956Z,0.00
2019-02-06T06:46:09.891Z,0.50
2019-02-06T06:56:18.897Z,0.70
2019-02-06T07:06:23.791Z,0.60
2019-02-06T07:16:28.724Z,0.70
2019-02-06T07:26:33.627Z,0.80
2019-02-06T07:36:40.485Z,0.80
2019-02-06T07:46:45.765Z,1.10
2019-02-06T07:56:51.256Z,1.10
2019-02-06T08:07:02.457Z,1.40
2019-02-06T08:17:07.286Z,1.60
2019-02-06T08:27:12.161Z,1.70
2019-02-06T08:37:17.033Z,1.60
2019-02-06T08:47:22.011Z,1.40
2019-02-06T08:57:26.901Z,2.70
2019-02-06T09:07:31.766Z,3.70
2019-02-06T09:17:37.330Z,4.00
2019-02-06T09:27:42.294Z,4.10
2019-02-06T09:37:47.399Z,3.80
2019-02-06T09:47:52.324Z,4.10
2019-02-06T09:57:57.619Z,4.40
2019-02-06T10:08:03.632Z,4.10
2019-02-06T10:18:08.489Z,3.80
2019-02-06T10:28:13.368Z,4.00
2019-02-06T10:38:18.786Z,5.10
2019-02-06T10:48:23.709Z,5.50
2019-02-06T10:58:28.553Z,5.30
2019-02-06T11:08:35.405Z,5.50
2019-02-06T11:18:40.367Z,6.10
2019-02-06T11:28:45.305Z,5.70
2019-02-06T11:38:50.250Z,4.80
2019-02-06T11:48:55.230Z,6.20
2019-02-06T11:59:00.127Z,6.60
2019-02-06T12:09:08.324Z,6.50
2019-02-06T12:19:25.263Z,6.20
2019-02-06T12:29:30.080Z,5.70
2019-02-06T12:39:35.154Z,5.80
2019-02-06T12:49:39.975Z,6.00
2019-02-06T12:59:44.924Z,5.80
2019-02-06T13:09:49.837Z,6.00
2019-02-06T13:19:54.722Z,6.10
2019-02-06T13:29:59.575Z,6.00
2019-02-06T13:40:07.365Z,6.00
2019-02-06T13:50:22.099Z,6.00
2019-02-06T14:00:24.865Z,6.10
2019-02-06T14:10:31.546Z,5.90
2019-02-06T14:20:36.884Z,5.90
2019-02-06T14:30:53.804Z,5.00
2019-02-06T14:41:08.832Z,5.20
2019-02-06T14:51:29.329Z,5.10
2019-02-06T15:01:40.680Z,5.20
2019-02-06T15:11:54.846Z,4.90
2019-02-06T15:22:38.049Z,4.70
2019-02-06T15:33:06.278Z,4.40
2019-02-06T15:43:28.075Z,4.00
2019-02-06T15:53:54.502Z,3.40
2019-02-06T16:04:23.372Z,2.90
2019-02-06T16:14:46.674Z,2.60
2019-02-06T16:25:14.712Z,2.20
2019-02-06T16:35:40.557Z,1.90
2019-02-06T16:46:04.555Z,1.40
2019-02-06T16:56:18.585Z,1.00
2019-02-06T17:06:29.763Z,1.10
2019-02-06T17:16:55.849Z,1.00
2019-02-06T17:27:04.246Z,0.80
2019-02-06T17:37:45.566Z,0.70
2019-02-06T17:48:11.836Z,0.50
2019-02-06T17:58:17.016Z,0.10
2019-02-06T18:08:22.246Z,0.20
2019-02-06T18:18:27.613Z,0.30
2019-02-06T18:28:43.326Z,0.00
2019-02-06T18:38:49.832Z,0.10
2019-02-06T18:48:55.441Z,-0.10
2019-02-06T18:59:03.767Z,-0.20
2019-02-06T19:09:11.352Z,-0.30
2019-02-06T19:19:25.167Z,-0.30
2019-02-06T19:29:26.529Z,-0.60
2019-02-06T19:39:31.968Z,-0.60
2019-02-06T19:49:40.301Z,-0.80
2019-02-06T19:59:45.779Z,-1.10
2019-02-06T20:09:52.804Z,-1.10
2019-02-06T20:19:59.071Z,-1.10
2019-02-06T20:30:06.010Z,-1.00
2019-02-06T20:40:17.045Z,-1.10
2019-02-06T20:50:24.695Z,-1.30
2019-02-06T21:00:45.307Z,-1.30
2019-02-06T21:10:51.753Z,-1.60
2019-02-06T21:20:57.006Z,-1.90
2019-02-06T21:31:02.555Z,-2.00
2019-02-06T21:41:07.804Z,-1.70
2019-02-06T21:51:13.031Z,-1.40
2019-02-06T22:01:18.169Z,-1.50
2019-02-06T22:11:23.004Z,-1.50
2019-02-06T22:21:27.924Z,-1.60
2019-02-06T22:31:33.044Z,-1.60
2019-02-06T22:41:38.045Z,-1.60
2019-02-06T22:51:42.919Z,-1.60
2019-02-06T23:01:48.047Z,-1.50
2019-02-06T23:11:52.964Z,-1.60
2019-02-06T23:21:58.861Z,-1.60
2019-02-06T23:32:03.826Z,-1.60
2019-02-06T23:42:10.027Z,-1.50
2019-02-06T23:52:15.415Z,-1.50
